Time;durP1;ratioP1;P1;durP2;ratioP2;P2;SDS_P1;SDS_P2;PMS_P1;PMS_P2;Temp;Humidity;BMP_temperature;BMP_pressure;BME280_temperature;BME280_humidity;BME280_pressure;Samples;Min_cycle;Max_cycle;Signal;HPM_P1;HPM_P2
2022/10/05 00:02:25;;;;;;;53.05;28.98;;;;;;;27.79;65.46;98317.66;4874479;28;20136;-72
2022/10/05 00:05:20;;;;;;;59.65;30.27;;;;;;;27.79;64.75;98309.41;4871952;29;20057;-73
2022/10/05 00:08:24;;;;;;;65.03;32.90;;;;;;;27.74;65.30;98321.44;4871567;29;20059;-72
2022/10/05 00:11:07;;;;;;;57.75;31.67;;;;;;;27.89;64.16;98323.59;4871634;29;20061;-73
2022/10/05 00:13:57;;;;;;;55.17;31.95;;;;;;;27.99;63.76;98324.31;4871283;29;20068;-72
2022/10/05 00:16:39;;;;;;;55.38;31.90;;;;;;;27.90;64.56;98322.47;4873148;29;20418;-73
2022/10/05 00:19:40;;;;;;;56.88;33.40;;;;;;;27.98;63.97;98323.53;4872272;29;20053;-72
2022/10/05 00:22:31;;;;;;;60.13;32.63;;;;;;;27.99;64.47;98321.56;4870915;29;20135;-73
2022/10/05 00:25:27;;;;;;;51.97;30.90;;;;;;;27.88;65.06;98333.03;4868817;29;20770;-72
2022/10/05 00:28:42;;;;;;;57.28;31.00;;;;;;;27.56;65.25;98331.00;4871716;29;20679;-73
2022/10/05 00:31:23;;;;;;;59.88;31.67;;;;;;;27.57;65.60;98335.34;4869928;29;20512;-72
2022/10/05 00:34:12;;;;;;;64.38;33.95;;;;;;;27.27;66.33;98340.94;4868536;29;20049;-71
2022/10/05 00:36:54;;;;;;;58.10;32.53;;;;;;;27.41;66.67;98346.16;4870963;29;20085;-73
2022/10/05 00:39:43;;;;;;;63.83;32.78;;;;;;;27.36;67.07;98349.13;4870686;29;20057;-72
2022/10/05 00:42:32;;;;;;;60.10;33.53;;;;;;;27.37;67.03;98343.28;4870606;29;20798;-72
2022/10/05 00:45:28;;;;;;;64.30;32.40;;;;;;;27.46;66.66;98349.53;4871635;29;20065;-71
2022/10/05 00:48:22;;;;;;;54.70;32.45;;;;;;;27.44;67.04;98359.25;4871468;29;20067;-73
2022/10/05 00:51:19;;;;;;;70.45;32.33;;;;;;;27.52;66.12;98350.16;4873658;29;20056;-71
2022/10/05 00:54:35;;;;;;;55.90;32.88;;;;;;;27.58;66.33;98356.28;4870769;29;20120;-73
2022/10/05 00:57:53;;;;;;;62.20;35.05;;;;;;;27.52;66.70;98353.72;4874617;29;20060;-72
2022/10/05 01:01:00;;;;;;;60.83;35.50;;;;;;;27.51;66.15;98356.78;4874913;29;20053;-73
2022/10/05 01:04:14;;;;;;;58.28;34.47;;;;;;;27.56;66.37;98355.81;4858623;29;20073;-73
2022/10/05 01:07:18;;;;;;;66.97;35.65;;;;;;;27.57;66.30;98360.97;4861897;29;20110;-72
2022/10/05 01:10:09;;;;;;;57.13;34.58;;;;;;;27.72;65.71;98365.06;4893618;29;20056;-73
2022/10/05 01:12:57;;;;;;;60.90;35.28;;;;;;;27.70;66.16;98370.13;4874239;29;20489;-72
2022/10/05 01:15:57;;;;;;;62.90;35.28;;;;;;;27.69;66.13;98374.84;4876695;29;20071;-73
2022/10/05 01:18:49;;;;;;;70.38;37.28;;;;;;;27.43;67.22;98372.25;4854840;29;20056;-73
2022/10/05 01:21:40;;;;;;;63.42;35.50;;;;;;;27.71;65.71;98374.50;4873302;29;20053;-73
2022/10/05 01:24:58;;;;;;;71.05;36.17;;;;;;;27.59;66.70;98379.94;4874209;29;20060;-73
2022/10/05 01:28:02;;;;;;;64.85;36.25;;;;;;;27.85;65.81;98376.97;4843329;29;20443;-72
2022/10/05 01:31:12;;;;;;;70.25;34.35;;;;;;;27.85;66.00;98372.25;4832074;29;20557;-72
2022/10/05 01:34:04;;;;;;;61.33;36.25;;;;;;;27.85;66.34;98376.97;4868181;29;20075;-73
2022/10/05 01:37:27;;;;;;;62.88;35.72;;;;;;;27.97;65.99;98374.31;4874309;29;20057;-72
2022/10/05 01:40:23;;;;;;;66.35;35.60;;;;;;;28.09;65.41;98381.84;4872610;29;20085;-73
2022/10/05 01:43:18;;;;;;;72.65;37.15;;;;;;;27.91;66.42;98376.47;4873477;29;20056;-73
2022/10/05 01:46:51;;;;;;;73.50;39.33;;;;;;;27.95;66.38;98382.09;4874188;29;20061;-72
2022/10/05 01:49:59;;;;;;;68.63;36.03;;;;;;;28.24;65.89;98394.19;4856508;29;20533;-73
2022/10/05 01:53:15;;;;;;;78.53;37.92;;;;;;;28.06;66.28;98386.06;4872188;29;20049;-72
2022/10/05 01:56:08;;;;;;;79.35;36.97;;;;;;;28.37;65.17;98386.78;4856418;29;20057;-74
2022/10/05 01:59:06;;;;;;;62.08;36.55;;;;;;;28.32;65.29;98390.56;4856958;29;20044;-74
2022/10/05 02:02:10;;;;;;;60.72;36.15;;;;;;;28.39;65.65;98381.72;4844805;29;20060;-75
2022/10/05 02:05:19;;;;;;;66.30;37.13;;;;;;;28.59;65.16;98382.84;4873864;29;20148;-73
2022/10/05 02:08:16;;;;;;;68.43;39.33;;;;;;;28.41;66.40;98387.69;4871894;29;20144;-70
2022/10/05 02:11:08;;;;;;;64.90;39.03;;;;;;;28.75;64.96;98385.75;4872929;29;20057;-74
2022/10/05 02:14:04;;;;;;;79.82;39.10;;;;;;;28.60;66.38;98387.22;4872699;29;20045;-72
2022/10/05 02:16:58;;;;;;;69.47;40.03;;;;;;;28.79;65.37;98392.19;4858681;29;20486;-74
2022/10/05 02:19:51;;;;;;;74.20;41.33;;;;;;;28.84;65.44;98394.75;4871628;29;20484;-73
2022/10/05 02:22:43;;;;;;;75.28;39.55;;;;;;;28.89;65.39;98391.72;4870741;29;20067;-74
2022/10/05 02:25:41;;;;;;;62.85;37.22;;;;;;;29.23;64.44;98396.03;4873010;29;20519;-74
2022/10/05 02:28:38;;;;;;;75.47;39.47;;;;;;;29.21;64.92;98392.03;4873358;29;20056;-74
2022/10/05 02:32:19;;;;;;;68.75;38.03;;;;;;;29.40;64.26;98394.22;4872014;29;20052;-74
2022/10/05 02:35:06;;;;;;;82.43;39.33;;;;;;;29.35;62.85;98386.97;4869869;29;20041;-74
2022/10/05 02:38:31;;;;;;;75.45;37.30;;;;;;;29.50;62.19;98395.69;4872228;29;20440;-74
2022/10/05 02:41:31;;;;;;;65.15;36.25;;;;;;;29.82;60.40;98394.72;4857174;29;20056;-74
2022/10/05 02:44:29;;;;;;;72.03;36.28;;;;;;;29.76;60.95;98404.44;4871689;29;20591;-71
2022/10/05 02:47:47;;;;;;;67.15;37.38;;;;;;;29.85;59.49;98405.09;4886865;29;20116;-72
2022/10/05 02:51:09;;;;;;;71.43;36.22;;;;;;;30.10;58.27;98409.78;4886457;29;20125;-73
2022/10/05 02:54:16;;;;;;;67.95;37.15;;;;;;;30.25;57.72;98407.03;4872465;29;20517;-72
2022/10/05 02:57:18;;;;;;;66.30;36.50;;;;;;;30.27;56.82;98417.78;4869264;29;20049;-73
2022/10/05 03:00:17;;;;;;;65.45;34.50;;;;;;;30.33;55.88;98412.81;4869440;29;20839;-71
2022/10/05 03:03:27;;;;;;;65.10;36.05;;;;;;;30.44;55.77;98423.03;4875541;29;20053;-72
2022/10/05 03:06:24;;;;;;;70.13;36.58;;;;;;;30.58;54.19;98424.56;4889574;29;20058;-72
2022/10/05 03:09:16;;;;;;;63.50;35.65;;;;;;;30.66;54.15;98425.56;4874345;29;20053;-72
2022/10/05 03:12:43;;;;;;;70.43;35.28;;;;;;;30.79;54.13;98424.34;4858892;29;20040;-72
2022/10/05 03:16:05;;;;;;;67.85;32.03;;;;;;;30.73;52.46;98420.22;4888995;29;20074;-71
2022/10/05 03:19:12;;;;;;;58.33;30.90;;;;;;;30.95;51.60;98414.09;4886480;29;20048;-73
2022/10/05 03:22:44;;;;;;;70.53;31.48;;;;;;;31.03;51.31;98413.13;4866509;29;20096;-72
2022/10/05 03:26:17;;;;;;;69.85;33.45;;;;;;;31.03;50.46;98420.63;4873258;29;20060;-72
2022/10/05 03:29:34;;;;;;;64.47;31.10;;;;;;;31.15;50.92;98420.53;4888390;29;20507;-71
2022/10/05 03:32:50;;;;;;;58.83;31.08;;;;;;;31.39;51.55;98419.53;4878907;29;20056;-72
2022/10/05 03:36:00;;;;;;;58.95;29.67;;;;;;;31.49;51.06;98425.72;4884665;29;20701;-72
2022/10/05 03:39:35;;;;;;;58.75;31.02;;;;;;;31.49;53.32;98422.94;4873057;29;20709;-72
2022/10/05 03:42:28;;;;;;;78.95;34.08;;;;;;;31.63;49.27;98428.03;4887938;29;20160;-72
2022/10/05 03:45:39;;;;;;;68.78;33.55;;;;;;;31.79;50.20;98426.81;4877623;29;20552;-72
2022/10/05 03:48:18;;;;;;;;;;;;;;;32.03;48.97;98424.19;4887869;29;20717;-72
2022/10/05 03:51:24;;;;;;;63.60;29.50;;;;;;;32.06;48.99;98423.44;4888186;29;20402;-72
2022/10/05 03:54:35;;;;;;;74.88;31.83;;;;;;;31.97;46.85;98426.41;4873007;29;20132;-72
2022/10/05 03:57:27;;;;;;;70.03;32.15;;;;;;;32.44;46.30;98425.41;4887378;29;20427;-72
2022/10/05 04:00:18;;;;;;;68.65;33.10;;;;;;;32.55;47.07;98434.75;4890783;29;20524;-72
2022/10/05 04:03:21;;;;;;;68.28;33.20;;;;;;;32.78;45.33;98434.00;4898443;28;20083;-72
2022/10/05 04:06:26;;;;;;;79.55;35.00;;;;;;;32.95;46.65;98441.84;4898276;29;20057;-72
2022/10/05 04:09:30;;;;;;;87.35;36.35;;;;;;;33.06;45.60;98441.25;4899767;29;20421;-72
2022/10/05 04:12:19;;;;;;;72.40;35.20;;;;;;;33.46;44.74;98437.13;4881821;29;20084;-72
2022/10/05 04:15:12;;;;;;;74.68;33.03;;;;;;;33.63;44.11;98431.09;4884678;29;20543;-72
2022/10/05 04:18:37;;;;;;;69.47;32.30;;;;;;;34.07;45.46;98433.28;4890941;29;20508;-73
2022/10/05 04:21:42;;;;;;;55.47;26.85;;;;;;;34.54;41.18;98425.50;4882744;29;20048;-72
2022/10/05 04:25:08;;;;;;;50.40;21.58;;;;;;;34.89;40.25;98435.44;4879979;29;20095;-74
2022/10/05 04:28:07;;;;;;;62.00;21.25;;;;;;;35.26;40.87;98423.44;4833494;29;20566;-71
2022/10/05 04:30:52;;;;;;;49.38;20.73;;;;;;;35.40;40.43;98431.13;4885402;29;20048;-71
2022/10/05 04:33:41;;;;;;;50.13;19.35;;;;;;;35.92;38.56;98426.28;4903528;29;20044;-72
2022/10/05 04:36:42;;;;;;;51.08;21.08;;;;;;;36.11;37.75;98422.38;4878514;29;20836;-72
2022/10/05 04:39:39;;;;;;;44.35;16.73;;;;;;;36.30;36.64;98424.06;4852679;29;20114;-71
2022/10/05 04:43:18;;;;;;;33.65;15.00;;;;;;;36.58;38.44;98428.97;4898532;29;20116;-71
2022/10/05 04:46:28;;;;;;;35.63;16.08;;;;;;;36.57;38.23;98432.16;4876378;29;20524;-72
2022/10/05 04:49:31;;;;;;;32.15;14.10;;;;;;;36.98;38.06;98429.84;4876292;29;20076;-72
2022/10/05 04:52:43;;;;;;;29.15;11.00;;;;;;;36.81;35.50;98430.63;4875283;29;20064;-72
2022/10/05 04:55:52;;;;;;;40.25;12.88;;;;;;;36.24;36.85;98432.03;4857665;29;20125;-73
2022/10/05 04:59:02;;;;;;;35.92;11.23;;;;;;;37.32;35.21;98432.28;4881693;29;20053;-75
2022/10/05 05:01:54;;;;;;;32.42;10.38;;;;;;;37.41;34.63;98426.28;4885536;28;20076;-71
2022/10/05 05:05:26;;;;;;;32.22;11.18;;;;;;;37.59;34.81;98429.06;4857126;29;20059;-72
2022/10/05 05:08:26;;;;;;;24.90;10.48;;;;;;;37.08;33.83;98433.84;4882502;29;20053;-73
2022/10/05 05:11:33;;;;;;;32.13;10.43;;;;;;;37.69;35.58;98425.47;4875242;29;20056;-74
2022/10/05 05:14:17;;;;;;;21.38;8.23;;;;;;;37.91;33.85;98422.59;4861007;29;20488;-71
2022/10/05 05:17:26;;;;;;;18.50;7.80;;;;;;;37.77;35.87;98424.22;4879791;29;20124;-70
2022/10/05 05:20:45;;;;;;;24.48;8.25;;;;;;;38.03;34.55;98421.34;4834081;29;20071;-69
2022/10/05 05:24:10;;;;;;;23.20;7.57;;;;;;;37.69;32.62;98417.06;4859926;29;20549;-71
2022/10/05 05:26:45;;;;;;;32.85;7.53;;;;;;;36.96;34.14;98420.28;4867935;29;20155;-69
2022/10/05 05:29:54;;;;;;;26.40;7.00;;;;;;;37.21;33.70;98414.72;4854414;29;20078;-71
2022/10/05 05:32:38;;;;;;;24.77;7.50;;;;;;;37.52;32.85;98412.25;4860131;29;20393;-71
2022/10/05 05:35:45;;;;;;;24.17;8.52;;;;;;;37.84;33.78;98405.81;4881198;29;20061;-71
2022/10/05 05:38:37;;;;;;;31.30;9.63;;;;;;;37.81;33.98;98396.22;4873487;29;20116;-71
2022/10/05 05:41:35;;;;;;;23.33;8.13;;;;;;;37.97;32.44;98398.56;4854797;29;20054;-71
2022/10/05 05:44:37;;;;;;;26.17;8.90;;;;;;;37.91;34.33;98389.78;4862767;29;20061;-70
2022/10/05 05:47:36;;;;;;;23.25;9.25;;;;;;;38.56;33.45;98390.31;4863062;29;20108;-68
2022/10/05 05:50:44;;;;;;;22.08;9.23;;;;;;;38.53;34.14;98384.69;4867782;29;20474;-69
2022/10/05 05:54:08;;;;;;;26.17;9.52;;;;;;;38.56;33.27;98383.91;4852035;29;20053;-68
2022/10/05 05:57:19;;;;;;;27.40;9.40;;;;;;;37.97;33.59;98379.75;4846927;29;20049;-69
2022/10/05 06:00:16;;;;;;;23.23;8.73;;;;;;;37.51;32.00;98371.47;4868289;29;20509;-70
2022/10/05 06:03:25;;;;;;;34.28;9.10;;;;;;;37.21;33.27;98367.94;4868273;29;20059;-69
2022/10/05 06:06:17;;;;;;;29.77;8.82;;;;;;;38.06;35.71;98367.31;4879537;29;20096;-69
2022/10/05 06:09:20;;;;;;;21.88;7.85;;;;;;;38.22;31.36;98362.06;4876517;29;20052;-70
2022/10/05 06:12:43;;;;;;;22.73;7.38;;;;;;;37.64;30.00;98360.66;4872575;29;20052;-70
2022/10/05 06:15:39;;;;;;;17.00;7.82;;;;;;;37.88;32.81;98356.19;4888535;29;20472;-69
2022/10/05 06:18:39;;;;;;;24.45;8.10;;;;;;;37.57;31.43;98345.47;4868472;29;21086;-69
2022/10/05 06:21:24;;;;;;;27.48;8.32;;;;;;;37.84;34.56;98349.81;4854792;29;20485;-69
2022/10/05 06:24:42;;;;;;;16.90;8.00;;;;;;;38.10;34.64;98342.91;4886596;29;20057;-68
2022/10/05 06:27:37;;;;;;;20.27;7.80;;;;;;;37.98;31.43;98332.94;4867407;29;20434;-69
2022/10/05 06:30:40;;;;;;;23.70;7.77;;;;;;;37.88;32.08;98334.56;4892986;29;20151;-70
2022/10/05 06:33:51;;;;;;;19.55;7.57;;;;;;;38.32;33.94;98333.16;4865737;29;20291;-69
2022/10/05 06:36:55;;;;;;;26.20;7.63;;;;;;;38.28;32.37;98323.97;4889893;29;20040;-69
2022/10/05 06:40:01;;;;;;;21.98;5.85;;;;;;;38.31;30.28;98320.38;4874614;29;20552;-69
2022/10/05 06:43:21;;;;;;;15.05;5.88;;;;;;;38.15;28.61;98320.84;4889775;29;20041;-71
2022/10/05 06:46:24;;;;;;;26.10;6.18;;;;;;;37.94;28.60;98315.34;4888948;29;20117;-72
2022/10/05 06:49:52;;;;;;;16.70;6.30;;;;;;;38.10;30.89;98309.28;4871939;29;20048;-71
2022/10/05 06:53:20;;;;;;;17.90;5.25;;;;;;;37.86;25.76;98296.97;4872979;29;20045;-72
2022/10/05 06:56:38;;;;;;;20.58;5.35;;;;;;;37.88;28.20;98294.56;4873096;29;20156;-72
2022/10/05 06:59:39;;;;;;;23.10;5.25;;;;;;;37.52;26.41;98292.69;4873473;29;20064;-72
2022/10/05 07:02:55;;;;;;;14.77;5.82;;;;;;;37.79;27.60;98289.41;4869273;29;20052;-71
2022/10/05 07:06:10;;;;;;;20.23;6.45;;;;;;;37.67;27.67;98279.47;4870721;29;20144;-70
2022/10/05 07:09:30;;;;;;;22.38;6.88;;;;;;;37.88;29.39;98277.75;4869639;29;20540;-72
2022/10/05 07:12:39;;;;;;;18.50;6.38;;;;;;;37.70;31.00;98266.63;4854262;29;20056;-71
2022/10/05 07:15:50;;;;;;;23.63;7.55;;;;;;;37.41;30.01;98267.53;4870296;29;20579;-71
2022/10/05 07:19:20;;;;;;;22.38;5.80;;;;;;;38.03;29.75;98256.03;4853532;29;20060;-71
2022/10/05 07:22:32;;;;;;;13.90;6.03;;;;;;;37.94;29.43;98242.50;4838168;29;20050;-72
2022/10/05 07:25:27;;;;;;;27.38;7.00;;;;;;;38.10;28.99;98239.22;4868807;29;20053;-71
2022/10/05 07:28:13;;;;;;;21.95;6.25;;;;;;;37.54;31.79;98239.88;4869329;29;20056;-71
2022/10/05 07:31:30;;;;;;;25.17;7.20;;;;;;;37.47;30.81;98228.72;4870072;29;20346;-71
2022/10/05 07:34:18;;;;;;;18.40;6.30;;;;;;;37.39;30.71;98230.75;4868896;29;20045;-72
2022/10/05 07:40:47;;;;;;;22.83;5.88;;;;;;;37.05;28.63;98227.63;4867812;29;20057;-72
2022/10/05 07:43:56;;;;;;;24.08;5.38;;;;;;;37.50;30.06;98222.31;4867764;29;20060;-72
2022/10/05 07:46:55;;;;;;;15.88;5.95;;;;;;;37.10;29.00;98218.84;4855302;29;20482;-72
2022/10/05 07:49:57;;;;;;;23.27;5.93;;;;;;;37.12;29.31;98216.41;4868541;29;20136;-74
2022/10/05 07:52:54;;;;;;;24.35;6.88;;;;;;;37.53;29.57;98206.69;4868053;29;20052;-72
2022/10/05 07:55:51;;;;;;;18.40;5.45;;;;;;;37.57;28.79;98207.50;4867161;29;20148;-72
2022/10/05 07:58:46;;;;;;;18.85;6.30;;;;;;;37.28;29.05;98195.63;4866646;29;20132;-72
2022/10/05 08:01:40;;;;;;;26.65;5.38;;;;;;;37.14;28.46;98190.88;4856965;29;20049;-72
2022/10/05 08:04:49;;;;;;;13.35;5.78;;;;;;;36.96;29.03;98188.13;4872624;29;20072;-71
2022/10/05 08:07:45;;;;;;;15.55;5.28;;;;;;;37.07;28.80;98180.50;4875345;29;20052;-70
2022/10/05 08:10:35;;;;;;;18.23;4.82;;;;;;;37.40;29.11;98170.78;4889442;29;20472;-71
2022/10/05 08:13:42;;;;;;;19.60;5.32;;;;;;;37.32;28.64;98171.19;4890259;29;20370;-70
2022/10/05 08:16:18;;;;;;;19.08;5.50;;;;;;;37.17;28.27;98165.69;4887214;29;20064;-71
2022/10/05 08:19:39;;;;;;;18.13;5.72;;;;;;;37.48;28.76;98167.94;4873483;29;20072;-68
2022/10/05 08:22:25;;;;;;;19.70;5.93;;;;;;;36.88;28.01;98152.97;4873469;29;20168;-69
2022/10/05 08:25:32;;;;;;;13.73;5.72;;;;;;;36.99;28.69;98150.94;4873069;29;20049;-70
2022/10/05 08:28:23;;;;;;;23.73;5.40;;;;;;;37.17;28.14;98148.09;4891677;29;20056;-70
2022/10/05 08:31:39;;;;;;;20.98;6.32;;;;;;;36.97;27.26;98137.34;4892649;29;20053;-69
2022/10/05 08:34:23;;;;;;;13.18;5.07;;;;;;;36.97;27.98;98131.75;4888824;29;20686;-71
2022/10/05 08:37:31;;;;;;;18.42;5.10;;;;;;;37.29;28.86;98127.25;4891181;29;20155;-70
2022/10/05 08:40:16;;;;;;;16.45;5.95;;;;;;;37.04;29.87;98125.34;4889047;29;20053;-69
2022/10/05 08:43:36;;;;;;;25.05;6.25;;;;;;;36.99;30.01;98128.56;4892327;29;20382;-70
2022/10/05 08:46:23;;;;;;;24.05;7.13;;;;;;;36.73;29.44;98116.66;4876031;29;20536;-70
2022/10/05 08:49:36;;;;;;;14.88;6.32;;;;;;;37.00;31.37;98114.16;4874998;29;20048;-69
2022/10/05 08:52:31;;;;;;;18.20;6.07;;;;;;;36.81;29.77;98111.84;4890002;29;20067;-69
2022/10/05 08:55:40;;;;;;;16.33;6.15;;;;;;;36.86;29.79;98110.63;4885923;29;20059;-70
2022/10/05 08:58:47;;;;;;;19.58;6.93;;;;;;;36.73;30.28;98105.50;4877687;29;20135;-68
2022/10/05 09:01:55;;;;;;;17.40;6.13;;;;;;;36.95;29.02;98102.59;4875757;29;20044;-71
2022/10/05 09:05:26;;;;;;;17.77;5.57;;;;;;;36.63;29.76;98095.09;4873592;29;20056;-69
2022/10/05 09:08:33;;;;;;;16.20;6.15;;;;;;;36.79;28.62;98092.69;4849391;29;20136;-69
2022/10/05 09:11:33;;;;;;;21.35;5.90;;;;;;;36.62;29.17;98097.09;4871807;29;20564;-68
2022/10/05 09:14:55;;;;;;;17.38;5.57;;;;;;;36.83;28.99;98090.66;4872278;29;20459;-69
2022/10/05 09:18:38;;;;;;;16.25;5.97;;;;;;;36.69;27.57;98087.94;4873909;29;20037;-69
2022/10/05 09:21:50;;;;;;;20.80;6.65;;;;;;;36.48;26.28;98082.34;4779726;29;20131;-68
2022/10/05 09:24:53;;;;;;;23.73;6.60;;;;;;;36.72;27.21;98075.91;4855049;29;20137;-69
2022/10/05 09:27:52;;;;;;;17.67;5.65;;;;;;;36.63;25.95;98076.34;4855246;29;20583;-69
2022/10/05 09:31:15;;;;;;;22.42;5.00;;;;;;;36.56;23.62;98072.78;4863691;29;20063;-69
2022/10/05 09:34:06;;;;;;;23.65;4.93;;;;;;;36.70;24.11;98071.94;4858221;29;20538;-69
2022/10/05 09:37:10;;;;;;;19.33;5.65;;;;;;;36.84;24.78;98071.88;4869917;29;20060;-69
2022/10/05 09:40:14;;;;;;;20.70;5.18;;;;;;;36.83;25.19;98059.91;4877919;29;20059;-69
2022/10/05 09:43:13;;;;;;;18.65;4.85;;;;;;;36.46;25.12;98063.22;4872479;29;20124;-71
2022/10/05 09:46:02;;;;;;;16.70;4.63;;;;;;;36.46;24.81;98063.22;4873270;29;20053;-71
2022/10/05 09:49:16;;;;;;;21.48;4.85;;;;;;;36.66;25.29;98057.19;4873791;29;20521;-70
2022/10/05 09:52:51;;;;;;;15.05;4.85;;;;;;;36.66;25.57;98060.78;4870325;29;20053;-70
2022/10/05 09:56:20;;;;;;;18.88;5.55;;;;;;;36.53;24.56;98048.41;4815105;29;20050;-69
2022/10/05 09:59:06;;;;;;;23.02;5.38;;;;;;;36.53;26.12;98045.63;4855885;29;20063;-70
2022/10/05 10:01:55;;;;;;;11.70;4.45;;;;;;;36.39;26.02;98041.66;4871305;29;20068;-67
2022/10/05 10:04:38;;;;;;;14.68;5.55;;;;;;;36.37;27.15;98038.47;4889755;29;20056;-69
2022/10/05 10:07:57;;;;;;;16.52;5.53;;;;;;;36.32;26.64;98036.09;4884873;29;20072;-69
2022/10/05 10:10:42;;;;;;;16.67;5.43;;;;;;;36.33;27.47;98036.91;4859418;29;20059;-69
2022/10/05 10:13:52;;;;;;;20.35;6.00;;;;;;;36.15;26.95;98031.31;4891049;29;20052;-74
2022/10/05 10:16:48;;;;;;;16.17;5.97;;;;;;;36.28;28.09;98029.72;4889036;29;20071;-71
2022/10/05 10:20:09;;;;;;;14.35;5.43;;;;;;;36.22;27.93;98028.53;4890163;29;20112;-70
2022/10/05 10:23:12;;;;;;;19.20;5.85;;;;;;;36.07;28.57;98036.13;4902726;29;20092;-70
2022/10/05 10:26:29;;;;;;;20.33;5.28;;;;;;;36.11;29.61;98027.72;4889037;29;20049;-71
2022/10/05 10:29:25;;;;;;;15.63;5.32;;;;;;;35.95;29.45;98030.97;4875383;29;20053;-71
2022/10/05 10:32:59;;;;;;;21.08;5.35;;;;;;;35.84;30.18;98023.38;4887305;29;20072;-69
2022/10/05 10:35:43;;;;;;;20.08;6.50;;;;;;;35.79;29.91;98023.78;4846655;29;20883;-72
2022/10/05 10:38:47;;;;;;;22.63;6.32;;;;;;;35.70;29.50;98019.81;4873513;29;20060;-72
2022/10/05 10:41:51;;;;;;;16.92;6.65;;;;;;;35.88;29.49;98023.38;4889480;29;20127;-71
2022/10/05 10:45:16;;;;;;;16.23;6.05;;;;;;;35.72;29.70;98014.63;4874933;29;20049;-72
2022/10/05 10:48:06;;;;;;;18.20;6.03;;;;;;;35.62;32.30;98019.78;4890861;29;20048;-68
2022/10/05 10:51:32;;;;;;;15.07;5.65;;;;;;;35.52;30.24;98012.19;4551058;29;9999740;-75
2022/10/05 10:54:22;;;;;;;22.27;6.35;;;;;;;35.48;29.20;98005.81;4887290;29;20067;-74
2022/10/05 10:57:31;;;;;;;19.67;5.93;;;;;;;35.39;29.70;98014.59;4889745;29;20056;-70
2022/10/05 11:00:34;;;;;;;24.58;6.30;;;;;;;35.45;30.14;98004.63;4890746;29;20473;-74
2022/10/05 11:03:55;;;;;;;27.20;6.50;;;;;;;35.21;30.18;98000.59;4890174;29;20056;-73
2022/10/05 11:07:08;;;;;;;24.42;6.28;;;;;;;35.35;29.83;98001.81;4880821;29;20075;-71
2022/10/05 11:10:01;;;;;;;27.10;7.45;;;;;;;35.39;29.97;97997.03;4890903;29;20063;-72
2022/10/05 11:13:11;;;;;;;20.98;6.75;;;;;;;35.17;31.91;97996.19;4889670;29;20052;-73
2022/10/05 11:16:07;;;;;;;19.27;7.40;;;;;;;35.25;32.93;97997.81;4886429;29;20061;-71
2022/10/05 11:19:25;;;;;;;25.42;8.13;;;;;;;35.22;31.99;97993.06;4889218;29;20617;-73
2022/10/05 11:22:57;;;;;;;32.40;7.85;;;;;;;35.08;33.42;97993.78;4888444;29;20048;-72
2022/10/05 11:26:07;;;;;;;27.95;7.60;;;;;;;34.95;33.32;97992.56;4866457;29;20053;-73
2022/10/05 11:29:08;;;;;;;39.13;8.10;;;;;;;34.85;33.76;97997.72;4888762;29;20105;-71
2022/10/05 11:32:05;;;;;;;22.13;6.28;;;;;;;34.83;32.08;97999.28;4895342;29;20052;-71
2022/10/05 11:35:26;;;;;;;20.45;6.07;;;;;;;34.75;32.68;98004.06;4889363;29;20053;-71
2022/10/05 11:38:40;;;;;;;19.30;6.35;;;;;;;34.60;33.22;97997.59;4798189;29;20062;-70
2022/10/05 11:41:52;;;;;;;22.90;6.90;;;;;;;34.64;32.26;98004.00;4873365;29;20060;-73
2022/10/05 11:45:15;;;;;;;24.85;7.03;;;;;;;34.52;33.83;98007.91;4842584;29;20059;-72
2022/10/05 11:48:05;;;;;;;24.88;6.60;;;;;;;34.47;32.91;98005.53;4886603;29;20128;-71
2022/10/05 11:51:07;;;;;;;19.80;6.00;;;;;;;34.36;34.22;97996.31;4879208;29;20436;-71
2022/10/05 11:54:31;;;;;;;22.23;7.20;;;;;;;34.33;35.59;97999.88;4856246;29;20052;-71
2022/10/05 11:57:50;;;;;;;24.25;6.60;;;;;;;34.21;36.93;98000.22;4892258;29;20490;-74
2022/10/05 12:00:49;;;;;;;18.23;6.95;;;;;;;34.12;37.37;97997.75;4861082;29;20485;-71
2022/10/05 12:04:15;;;;;;;20.20;7.70;;;;;;;33.99;37.58;97997.25;4884232;29;20078;-71
2022/10/05 12:07:21;;;;;;;21.20;6.85;;;;;;;33.67;41.16;98002.59;4860390;29;20060;-73
2022/10/05 12:10:31;;;;;;;19.70;7.80;;;;;;;33.54;41.50;98002.88;4866447;29;20076;-71
2022/10/05 12:13:29;;;;;;;20.17;7.35;;;;;;;33.42;42.12;98005.13;4867839;29;20116;-72
2022/10/05 12:16:43;;;;;;;19.00;6.93;;;;;;;33.30;43.19;98001.47;4867703;29;20060;-73
2022/10/05 12:19:45;;;;;;;21.15;7.40;;;;;;;33.19;43.72;98006.16;4871842;29;20055;-72
2022/10/05 12:22:36;;;;;;;27.40;7.60;;;;;;;33.11;42.39;98008.03;4867995;29;20057;-69
2022/10/05 12:25:51;;;;;;;27.65;8.48;;;;;;;33.06;43.74;98011.13;4869050;29;20057;-70
2022/10/05 12:28:58;;;;;;;29.30;8.40;;;;;;;32.94;43.81;98012.22;4867754;29;20213;-71
2022/10/05 12:31:39;;;;;;;35.15;8.02;;;;;;;32.80;44.40;98014.81;4866887;29;20062;-72
2022/10/05 12:35:04;;;;;;;19.15;6.93;;;;;;;32.73;44.06;98012.75;4867385;29;20056;-72
2022/10/05 12:37:54;;;;;;;26.00;8.13;;;;;;;32.66;44.56;98014.66;4878070;29;20068;-72
2022/10/05 12:40:55;;;;;;;29.40;7.95;;;;;;;32.54;44.93;98015.66;4869888;29;20054;-72
2022/10/05 12:44:01;;;;;;;27.60;7.93;;;;;;;32.47;43.30;98016.38;4866095;29;20686;-70
2022/10/05 12:47:19;;;;;;;20.15;7.88;;;;;;;32.36;45.34;98010.66;4863258;29;20049;-70
2022/10/05 12:50:15;;;;;;;23.45;8.18;;;;;;;32.35;44.33;98025.75;4875465;29;20045;-69
2022/10/05 12:53:29;;;;;;;34.47;8.00;;;;;;;32.38;45.16;98026.97;4881093;29;20049;-70
2022/10/05 12:56:15;;;;;;;30.17;9.20;;;;;;;32.34;42.45;98023.34;4871333;29;20288;-70
2022/10/05 12:59:26;;;;;;;32.30;9.10;;;;;;;32.26;42.16;98027.19;4869140;29;20136;-72
2022/10/05 13:02:22;;;;;;;27.37;9.57;;;;;;;32.18;42.86;98017.97;4534229;29;10000185;-73
2022/10/05 13:05:10;;;;;;;31.88;10.10;;;;;;;32.15;42.64;98027.03;4886852;29;20120;-70
2022/10/05 13:08:21;;;;;;;38.80;9.38;;;;;;;32.03;42.66;98030.84;4873929;29;20044;-72
2022/10/05 13:11:27;;;;;;;36.50;10.48;;;;;;;31.98;42.76;98025.56;4886867;29;20058;-73
2022/10/05 13:14:36;;;;;;;;;;;;;;;31.86;42.68;98020.25;4884148;29;20068;-69
2022/10/05 13:17:32;;;;;;;38.65;9.20;;;;;;;31.70;44.59;98023.13;4868384;29;20026;-71
2022/10/05 13:20:56;;;;;;;35.03;9.27;;;;;;;31.54;45.19;98031.59;4899772;29;20525;-70
2022/10/05 13:23:53;;;;;;;50.90;10.82;;;;;;;31.42;46.34;98030.59;4896210;29;20413;-72
2022/10/05 13:26:47;;;;;;;33.95;10.27;;;;;;;31.40;46.08;98035.69;4899057;29;20078;-69
2022/10/05 13:29:58;;;;;;;35.15;9.73;;;;;;;31.35;46.66;98030.47;4891017;29;20059;-72
2022/10/05 13:32:40;;;;;;;41.78;11.07;;;;;;;31.31;46.91;98039.88;4886621;29;20066;-71
2022/10/05 13:36:06;;;;;;;29.15;9.77;;;;;;;31.33;47.34;98043.88;4898277;29;20044;-69
2022/10/05 13:39:13;;;;;;;43.67;10.48;;;;;;;31.30;48.13;98039.09;4879908;29;20044;-69
2022/10/05 13:42:12;;;;;;;40.70;10.50;;;;;;;31.27;49.24;98042.59;4887380;29;20111;-72
2022/10/05 13:44:57;;;;;;;47.40;10.90;;;;;;;31.27;48.62;98045.38;4892702;29;20080;-69
2022/10/05 13:48:32;;;;;;;33.55;10.63;;;;;;;31.25;49.30;98050.47;4893107;29;20060;-72
2022/10/05 13:51:16;;;;;;;45.17;11.80;;;;;;;31.21;49.42;98052.38;4807185;29;20050;-71
2022/10/05 13:54:31;;;;;;;33.22;11.70;;;;;;;31.15;49.67;98054.66;4818672;29;20478;-70
2022/10/05 13:57:51;;;;;;;51.97;11.05;;;;;;;31.14;49.57;98052.25;4862936;29;20060;-72
2022/10/05 14:01:17;;;;;;;33.70;12.63;;;;;;;31.12;49.49;98060.94;4870056;29;20056;-75
2022/10/05 14:04:23;;;;;;;44.72;11.35;;;;;;;31.05;49.66;98069.13;4882605;29;20148;-70
2022/10/05 14:07:33;;;;;;;50.78;11.60;;;;;;;31.03;49.30;98074.19;4871105;29;20113;-73
2022/10/05 14:10:21;;;;;;;40.72;11.25;;;;;;;31.00;50.43;98078.53;4859745;29;20898;-74
2022/10/05 14:13:19;;;;;;;35.83;11.80;;;;;;;31.01;51.14;98088.44;4866551;29;20132;-69
2022/10/05 14:16:19;;;;;;;43.03;12.20;;;;;;;30.98;50.97;98086.41;4872736;29;20549;-73
2022/10/05 14:19:25;;;;;;;40.35;12.65;;;;;;;31.02;50.73;98095.56;4870061;29;20049;-73